Akers, Louisiana
Current Conditions -  °F | °C
As of 8:35 AM on Wednesday 22 Oct 2014 (Local Time) from KHDC Reporting Station
Clear Clear  
Wind Chill: 64°   Ceiling: Unl
Heat Index: 64°   Visibility: 10mi
Dew Point: 52°   Wind: 6mph
Humidity: 64%   Direction: 50°NE
Pressure: 30.12"   Gusts: NA
Location:  30.29°N, 90.4°W
Report Text: KHDC 221335Z AUTO 05005KT 10SM CLR 18/11 A3012 RMK AO2
Loading
Personal Weather Stations






























Interactive Weather Map New forecast layout! Learn more

10-Day Weather Forecast

Advertisements
Track Severe Weather on mobile